Warwick, North Dakota
Current Conditions -  °F | °C
As of 8:55 PM on Sunday 23 Nov 2014 (Local Time) from KDVL Reporting Station
Overcast Overcast  
Wind Chill: -3°   Ceiling: 1600
Heat Index: 14°   Visibility: 10mi
Dew Point:   Wind: 18mph
Humidity: 62%   Direction: 340°NNW
Pressure: 29.62"   Gusts: 24mph
Location:  47.86°N, 98.71°W
Report Text: KDVL 240255Z AUTO 34016G21KT 10SM OVC016 M10/M16 A2962 RMK AO1 52014
Loading
Personal Weather Stations






























Interactive Weather Map New forecast layout! Learn more

10-Day Weather Forecast

Advertisements
Track Severe Weather on mobile